Time;durP1;ratioP1;P1;durP2;ratioP2;P2;SDS_P1;SDS_P2;PMS_P1;PMS_P2;Temp;Humidity;BMP_temperature;BMP_pressure;BME280_temperature;BME280_humidity;BME280_pressure;Samples;Min_cycle;Max_cycle;Signal;HPM_P1;HPM_P2
2022/08/23 00:01:50;;;;;;;6.30;4.72;;;17.60;99.90;;;;;;5125924;27;20059;-76
2022/08/23 00:04:22;;;;;;;8.40;5.43;;;17.60;99.90;;;;;;5132236;27;20155;-78
2022/08/23 00:06:50;;;;;;;10.30;6.85;;;17.50;99.90;;;;;;5123631;27;20084;-75
2022/08/23 00:09:18;;;;;;;8.10;5.55;;;17.50;99.90;;;;;;5126763;27;20047;-75
2022/08/23 00:12:03;;;;;;;4.97;4.47;;;17.50;99.90;;;;;;5134818;27;20050;-77
2022/08/23 00:14:31;;;;;;;5.03;3.53;;;17.40;99.90;;;;;;5102975;27;20487;-73
2022/08/23 00:16:58;;;;;;;9.60;5.22;;;17.30;99.90;;;;;;5131951;27;20070;-78
2022/08/23 00:19:25;;;;;;;6.82;4.72;;;17.20;99.90;;;;;;5129063;27;20099;-78
2022/08/23 00:21:53;;;;;;;7.68;4.53;;;17.10;99.90;;;;;;5132933;27;20573;-78
2022/08/23 00:24:19;;;;;;;4.20;3.58;;;17.10;99.90;;;;;;5115251;27;20844;-77
2022/08/23 00:26:54;;;;;;;9.63;4.65;;;17.10;99.90;;;;;;5115177;27;20111;-76
2022/08/23 00:29:22;;;;;;;6.90;4.15;;;17.00;99.90;;;;;;5121036;27;20123;-75
2022/08/23 00:31:48;;;;;;;9.07;4.95;;;17.10;99.90;;;;;;5132729;27;20050;-76
2022/08/23 00:34:14;;;;;;;6.38;4.93;;;17.00;99.90;;;;;;5132304;27;20058;-77
2022/08/23 00:36:41;;;;;;;6.85;5.13;;;17.00;99.90;;;;;;5132292;27;20095;-79
2022/08/23 00:39:06;;;;;;;7.00;4.82;;;17.00;99.90;;;;;;5123444;27;20054;-76
2022/08/23 00:41:34;;;;;;;5.47;4.63;;;17.00;99.90;;;;;;5109464;27;20039;-78
2022/08/23 00:49:39;;;;;;;;;;;16.90;99.90;;;;;;5131883;27;20836;-77
2022/08/23 00:52:16;;;;;;;7.35;5.50;;;16.80;99.90;;;;;;5127673;27;19934;-79
2022/08/23 00:54:42;;;;;;;8.73;4.70;;;16.80;99.90;;;;;;5114718;27;20035;-78
2022/08/23 00:57:13;;;;;;;7.18;5.43;;;16.80;99.90;;;;;;5130639;27;20051;-78
2022/08/23 00:59:39;;;;;;;8.43;4.80;;;16.80;99.90;;;;;;5134801;27;20145;-75
2022/08/23 01:02:06;;;;;;;11.75;4.47;;;16.80;99.90;;;;;;5115255;27;20039;-78
2022/08/23 01:04:37;;;;;;;7.78;5.13;;;16.90;99.90;;;;;;5134109;27;20042;-78
2022/08/23 01:07:13;;;;;;;13.65;5.22;;;16.80;99.90;;;;;;5131809;27;20756;-76
2022/08/23 01:09:43;;;;;;;7.55;5.32;;;16.90;99.90;;;;;;5134907;27;20055;-75
2022/08/23 01:12:19;;;;;;;12.13;6.15;;;16.90;99.90;;;;;;5130198;27;20051;-76
2022/08/23 01:15:20;;;;;;;7.95;5.13;;;16.80;99.90;;;;;;5136073;27;20038;-75
2022/08/23 01:17:52;;;;;;;5.40;4.90;;;16.80;99.90;;;;;;5135788;27;20469;-78
2022/08/23 01:20:23;;;;;;;6.68;4.90;;;16.70;99.90;;;;;;5132452;27;20059;-79
2022/08/23 01:23:12;;;;;;;8.18;4.97;;;16.60;99.90;;;;;;5128629;27;20161;-76
2022/08/23 01:25:39;;;;;;;6.65;5.63;;;16.60;99.90;;;;;;5117280;27;20913;-74
2022/08/23 01:28:05;;;;;;;6.57;5.47;;;16.50;99.90;;;;;;5136916;27;20049;-76
2022/08/23 01:30:32;;;;;;;7.10;5.15;;;16.50;99.90;;;;;;5131794;27;20047;-79
2022/08/23 01:33:01;;;;;;;8.02;4.50;;;16.40;99.90;;;;;;5134434;27;20047;-78
2022/08/23 01:35:38;;;;;;;6.60;6.00;;;16.40;99.90;;;;;;5133366;27;20047;-80
2022/08/23 01:38:05;;;;;;;7.43;4.65;;;16.40;99.90;;;;;;5136007;27;20043;-79
2022/08/23 01:40:31;;;;;;;6.45;5.05;;;16.30;99.90;;;;;;5115786;27;20038;-78
2022/08/23 01:42:58;;;;;;;5.10;4.57;;;16.30;99.90;;;;;;5137235;27;20091;-78
2022/08/23 01:45:23;;;;;;;6.53;5.35;;;16.30;99.90;;;;;;5135065;27;20065;-76
2022/08/23 01:47:49;;;;;;;8.88;4.80;;;16.30;99.90;;;;;;5137699;27;20968;-75
2022/08/23 01:50:15;;;;;;;8.20;6.70;;;16.30;99.90;;;;;;5117390;27;20043;-78
2022/08/23 01:52:42;;;;;;;5.35;4.78;;;16.30;99.90;;;;;;5133668;27;20046;-77
2022/08/23 01:55:08;;;;;;;4.80;4.40;;;16.30;99.90;;;;;;5128624;27;20158;-79
2022/08/23 01:57:34;;;;;;;8.32;5.90;;;16.30;99.90;;;;;;5117021;27;20142;-76
2022/08/23 02:00:00;;;;;;;7.03;5.25;;;16.30;99.90;;;;;;5131513;27;20050;-77
2022/08/23 02:02:27;;;;;;;6.60;5.75;;;16.20;99.90;;;;;;5135129;27;20043;-79
2022/08/23 02:04:52;;;;;;;6.43;5.18;;;16.20;99.90;;;;;;5133673;27;20901;-79
2022/08/23 02:07:18;;;;;;;8.93;5.93;;;16.20;99.90;;;;;;5116941;27;20055;-77
2022/08/23 02:09:44;;;;;;;8.60;5.70;;;16.10;99.90;;;;;;5117039;27;20045;-79
2022/08/23 02:12:10;;;;;;;9.05;5.60;;;16.20;99.90;;;;;;5129502;27;20187;-77
2022/08/23 02:14:36;;;;;;;8.77;6.28;;;16.20;99.90;;;;;;5135990;27;20043;-78
2022/08/23 02:17:03;;;;;;;11.45;6.55;;;16.20;99.90;;;;;;5114604;27;20577;-76
2022/08/23 02:19:29;;;;;;;9.10;6.80;;;16.20;99.90;;;;;;5129397;27;20493;-75
2022/08/23 02:21:55;;;;;;;7.43;6.07;;;16.20;99.90;;;;;;5133390;27;20602;-78
2022/08/23 02:24:24;;;;;;;8.80;5.47;;;16.20;99.90;;;;;;5136143;27;20051;-79
2022/08/23 02:26:55;;;;;;;9.82;5.40;;;16.10;99.90;;;;;;5135047;27;20051;-78
2022/08/23 02:29:23;;;;;;;8.48;6.80;;;16.10;99.90;;;;;;5135446;27;20054;-78
2022/08/23 02:31:49;;;;;;;7.25;4.95;;;16.00;99.90;;;;;;5130773;27;20155;-75
2022/08/23 02:34:17;;;;;;;8.73;5.60;;;16.00;99.90;;;;;;5137217;27;20038;-80
2022/08/23 02:36:42;;;;;;;5.90;5.30;;;16.00;99.90;;;;;;5114421;27;20664;-76
2022/08/23 02:39:09;;;;;;;6.22;5.20;;;15.90;99.90;;;;;;5135844;27;20066;-78
2022/08/23 02:41:36;;;;;;;6.32;5.07;;;15.90;99.90;;;;;;5125936;27;20045;-80
2022/08/23 02:44:03;;;;;;;8.27;5.07;;;15.90;99.90;;;;;;5132578;27;20096;-74
2022/08/23 02:46:29;;;;;;;9.65;6.63;;;15.80;99.90;;;;;;5130591;27;20038;-76
2022/08/23 02:48:55;;;;;;;8.55;5.50;;;15.80;99.90;;;;;;5135577;27;20054;-80
2022/08/23 02:51:22;;;;;;;6.28;5.22;;;15.80;99.90;;;;;;5136362;27;20123;-80
2022/08/23 02:53:47;;;;;;;7.25;5.53;;;15.80;99.90;;;;;;5133759;27;20035;-80
2022/08/23 02:56:14;;;;;;;6.63;5.68;;;15.80;99.90;;;;;;5133384;27;20045;-77
2022/08/23 02:58:40;;;;;;;9.32;7.35;;;15.70;99.90;;;;;;5129764;27;20431;-78
2022/08/23 03:01:17;;;;;;;6.47;5.88;;;15.70;99.90;;;;;;5134791;27;20048;-79
2022/08/23 03:03:44;;;;;;;6.82;5.28;;;15.70;99.90;;;;;;5132740;27;20050;-78
2022/08/23 03:06:14;;;;;;;9.32;6.22;;;15.70;99.90;;;;;;5132060;27;20074;-77
2022/08/23 03:08:41;;;;;;;6.32;5.72;;;15.70;99.90;;;;;;5135457;27;20073;-77
2022/08/23 03:11:13;;;;;;;6.47;5.75;;;15.70;99.90;;;;;;5135925;27;20075;-78
2022/08/23 03:13:40;;;;;;;6.95;5.85;;;15.70;99.90;;;;;;5134140;27;20055;-78
2022/08/23 03:16:07;;;;;;;7.47;4.90;;;15.70;99.90;;;;;;5130393;27;20050;-78
2022/08/23 03:18:34;;;;;;;9.77;5.68;;;15.60;99.90;;;;;;5136667;27;20101;-76
2022/08/23 03:21:00;;;;;;;7.63;5.20;;;15.70;99.90;;;;;;5128502;27;20157;-78
2022/08/23 03:23:26;;;;;;;6.90;4.55;;;15.70;99.90;;;;;;5136672;27;20122;-78
2022/08/23 03:25:52;;;;;;;5.85;4.38;;;15.70;99.90;;;;;;5112508;27;20055;-80
2022/08/23 03:28:19;;;;;;;4.93;3.65;;;15.60;99.90;;;;;;5132851;27;20507;-76
2022/08/23 03:30:45;;;;;;;4.45;3.20;;;15.60;99.90;;;;;;5129424;27;20050;-77
2022/08/23 03:33:10;;;;;;;4.00;3.28;;;15.60;99.90;;;;;;5134696;27;20142;-76
2022/08/23 03:35:36;;;;;;;4.55;3.63;;;15.50;99.90;;;;;;5115107;27;20761;-77
2022/08/23 03:38:02;;;;;;;4.95;4.00;;;15.50;99.90;;;;;;5128506;27;21081;-79
2022/08/23 03:40:27;;;;;;;6.13;4.28;;;15.50;99.90;;;;;;5129249;27;20060;-78
2022/08/23 03:42:53;;;;;;;5.93;4.93;;;15.40;99.90;;;;;;5134435;27;20106;-77
2022/08/23 03:45:19;;;;;;;5.80;4.55;;;15.40;99.90;;;;;;5129533;27;20043;-78
2022/08/23 03:47:45;;;;;;;5.88;5.13;;;15.30;99.90;;;;;;5135614;27;20039;-80
2022/08/23 03:50:11;;;;;;;7.00;4.78;;;15.40;99.90;;;;;;5134379;27;20046;-78
2022/08/23 03:52:37;;;;;;;4.32;3.92;;;15.30;99.90;;;;;;5132821;27;20398;-80
2022/08/23 03:55:03;;;;;;;6.82;4.72;;;15.30;99.90;;;;;;5134260;27;20047;-78
2022/08/23 03:57:28;;;;;;;5.10;4.60;;;15.30;99.90;;;;;;5132355;27;20047;-76
2022/08/23 03:59:54;;;;;;;6.03;5.00;;;15.30;99.90;;;;;;5126832;27;20076;-77
2022/08/23 04:02:21;;;;;;;8.18;4.78;;;15.30;99.90;;;;;;5135577;27;20494;-79
2022/08/23 04:04:46;;;;;;;5.88;5.05;;;15.30;99.90;;;;;;5130928;27;20454;-80
2022/08/23 04:07:16;;;;;;;6.47;5.53;;;15.20;99.90;;;;;;5122344;27;20662;-79
2022/08/23 04:09:43;;;;;;;5.45;4.60;;;15.20;99.90;;;;;;5126549;27;20055;-80
2022/08/23 04:12:08;;;;;;;5.70;4.22;;;15.20;99.90;;;;;;5131842;27;20090;-78
2022/08/23 04:14:34;;;;;;;6.82;5.20;;;15.30;99.90;;;;;;5136676;27;20130;-78
2022/08/23 04:17:00;;;;;;;5.03;4.50;;;15.30;99.90;;;;;;5129432;27;20047;-78
2022/08/23 04:19:26;;;;;;;16.73;4.47;;;15.30;99.90;;;;;;5109767;27;20058;-78
2022/08/23 04:21:52;;;;;;;4.88;3.92;;;15.30;99.90;;;;;;5115248;27;20042;-76
2022/08/23 04:24:18;;;;;;;7.95;4.10;;;15.20;99.90;;;;;;5129401;27;20088;-77
2022/08/23 04:26:44;;;;;;;5.22;4.07;;;15.20;99.90;;;;;;5128209;27;20047;-75
2022/08/23 04:29:13;;;;;;;5.25;3.38;;;15.20;99.90;;;;;;5129572;27;20031;-77
2022/08/23 04:31:39;;;;;;;4.13;3.70;;;15.10;99.90;;;;;;5133562;27;20058;-76
2022/08/23 04:34:05;;;;;;;4.65;3.40;;;15.10;99.90;;;;;;5134075;27;20046;-80
2022/08/23 04:36:35;;;;;;;5.43;3.60;;;15.10;99.90;;;;;;5131937;27;20043;-78
2022/08/23 04:39:01;;;;;;;4.93;3.72;;;15.00;99.90;;;;;;5116676;27;20067;-77
2022/08/23 04:44:13;;;;;;;7.93;5.35;;;15.00;99.90;;;;;;5138275;27;20119;-79
2022/08/23 04:46:39;;;;;;;6.88;5.45;;;15.00;99.90;;;;;;5130292;27;20051;-77
2022/08/23 04:49:05;;;;;;;6.60;5.22;;;15.10;99.90;;;;;;5140325;27;20349;-80
2022/08/23 04:51:31;;;;;;;6.40;5.47;;;15.10;99.90;;;;;;5132222;27;20470;-78
2022/08/23 04:53:56;;;;;;;6.15;4.75;;;15.10;99.90;;;;;;5140130;27;20491;-80
2022/08/23 04:56:22;;;;;;;7.95;5.65;;;15.10;99.90;;;;;;5131758;27;20051;-74
2022/08/23 04:58:48;;;;;;;6.68;5.82;;;15.10;99.90;;;;;;5124494;27;20560;-79
2022/08/23 05:01:15;;;;;;;11.05;5.60;;;15.10;99.90;;;;;;5141595;27;20067;-74
2022/08/23 05:03:41;;;;;;;7.20;5.75;;;15.20;99.90;;;;;;5137287;27;20057;-76
2022/08/23 05:06:07;;;;;;;8.02;5.45;;;15.20;99.90;;;;;;5137551;27;20091;-79
2022/08/23 05:08:33;;;;;;;7.00;6.18;;;15.20;99.90;;;;;;5102754;27;20729;-74
2022/08/23 05:11:01;;;;;;;8.05;6.40;;;15.20;99.90;;;;;;5123148;27;20568;-80
2022/08/23 05:13:27;;;;;;;8.93;6.97;;;15.30;99.90;;;;;;5128847;27;20039;-79
2022/08/23 05:15:52;;;;;;;8.77;5.60;;;15.30;99.90;;;;;;5105598;27;20043;-78
2022/08/23 05:18:18;;;;;;;7.68;6.82;;;15.30;99.90;;;;;;5105348;27;20054;-76
2022/08/23 05:20:44;;;;;;;7.57;6.57;;;15.40;99.90;;;;;;5130582;27;20050;-80
2022/08/23 05:23:10;;;;;;;9.27;7.28;;;15.50;99.90;;;;;;5125512;27;20042;-78
2022/08/23 05:25:51;;;;;;;9.88;7.10;;;15.60;99.90;;;;;;5126946;27;20729;-75
2022/08/23 05:28:21;;;;;;;8.75;7.68;;;15.70;99.90;;;;;;5132908;27;20146;-78
2022/08/23 05:31:03;;;;;;;8.80;7.20;;;15.80;99.90;;;;;;5129411;27;20839;-80
2022/08/23 05:33:30;;;;;;;9.45;8.13;;;16.00;99.90;;;;;;5111325;27;20834;-75
2022/08/23 05:35:57;;;;;;;10.35;8.57;;;16.10;99.90;;;;;;5135713;27;20412;-79
2022/08/23 05:38:24;;;;;;;12.15;10.27;;;16.10;99.90;;;;;;5139367;27;20038;-78
2022/08/23 05:40:56;;;;;;;10.25;8.90;;;16.20;99.90;;;;;;5140085;27;20049;-79
2022/08/23 05:43:22;;;;;;;10.63;8.60;;;16.30;99.90;;;;;;5140859;27;20057;-79
2022/08/23 05:45:57;;;;;;;9.68;8.68;;;16.30;99.90;;;;;;5127725;27;20047;-77
2022/08/23 05:48:23;;;;;;;11.10;8.20;;;16.40;99.90;;;;;;5134614;27;20043;-78
2022/08/23 05:50:48;;;;;;;12.65;8.93;;;16.40;99.90;;;;;;5138007;27;20065;-76
2022/08/23 05:53:14;;;;;;;13.65;10.98;;;16.40;99.90;;;;;;5136860;27;20091;-80
2022/08/23 05:55:40;;;;;;;13.38;11.23;;;16.50;99.90;;;;;;5139528;27;20402;-78
2022/08/23 05:58:06;;;;;;;13.32;11.73;;;16.50;99.90;;;;;;5138681;27;20051;-77
2022/08/23 06:00:31;;;;;;;16.90;11.43;;;16.70;99.90;;;;;;5134847;27;20043;-78
2022/08/23 06:02:57;;;;;;;16.20;11.82;;;16.70;99.90;;;;;;5140577;27;20047;-78
2022/08/23 06:05:23;;;;;;;17.60;11.65;;;16.80;99.90;;;;;;5138364;27;20053;-74
2022/08/23 06:07:49;;;;;;;14.32;10.52;;;16.80;99.90;;;;;;5115665;27;20942;-75
2022/08/23 06:10:15;;;;;;;13.57;10.93;;;16.80;99.90;;;;;;5137081;27;20596;-77
2022/08/23 06:12:41;;;;;;;11.82;10.00;;;16.90;99.90;;;;;;5132257;27;20525;-79
2022/08/23 06:15:07;;;;;;;11.98;9.88;;;16.90;99.90;;;;;;5133585;27;20090;-77
2022/08/23 06:17:32;;;;;;;13.85;11.20;;;17.00;99.90;;;;;;5132942;27;20050;-76
2022/08/23 06:19:58;;;;;;;12.82;10.65;;;17.10;99.90;;;;;;5119024;27;20086;-78
2022/08/23 06:22:24;;;;;;;13.07;11.02;;;17.10;99.90;;;;;;5132654;27;20046;-78
2022/08/23 06:24:50;;;;;;;15.40;11.13;;;17.20;99.90;;;;;;5114758;27;20081;-77
2022/08/23 06:27:15;;;;;;;13.23;10.00;;;17.30;99.90;;;;;;5138775;27;20797;-78
2022/08/23 06:29:41;;;;;;;13.32;10.02;;;17.40;99.90;;;;;;5139077;27;20046;-80
2022/08/23 06:32:07;;;;;;;15.32;11.60;;;17.50;99.90;;;;;;5127245;27;20053;-79
2022/08/23 06:34:37;;;;;;;12.82;11.52;;;17.60;99.90;;;;;;5133514;27;20047;-77
2022/08/23 06:37:09;;;;;;;15.68;10.77;;;17.70;99.90;;;;;;5137277;27;20050;-76
2022/08/23 06:39:36;;;;;;;13.65;11.73;;;17.80;99.90;;;;;;5130261;27;20049;-79
2022/08/23 06:42:11;;;;;;;16.85;11.65;;;17.90;99.90;;;;;;5135714;27;20047;-77
2022/08/23 06:44:37;;;;;;;12.35;10.93;;;18.10;99.90;;;;;;5125341;27;20039;-79
2022/08/23 06:47:04;;;;;;;13.55;11.43;;;18.30;99.90;;;;;;5127227;27;20054;-78
2022/08/23 06:49:30;;;;;;;12.80;11.45;;;18.40;99.90;;;;;;5119516;27;20154;-80
2022/08/23 06:52:02;;;;;;;13.68;11.40;;;18.50;99.90;;;;;;5126600;27;20100;-82
2022/08/23 06:54:31;;;;;;;16.37;11.30;;;18.70;99.90;;;;;;5125306;27;20053;-75
2022/08/23 06:56:57;;;;;;;13.77;11.07;;;18.80;99.90;;;;;;5123934;27;20055;-76
2022/08/23 06:59:23;;;;;;;14.48;11.30;;;19.00;99.90;;;;;;5133447;27;20082;-76
2022/08/23 07:01:49;;;;;;;13.43;11.23;;;19.20;99.90;;;;;;5134869;27;20042;-74
2022/08/23 07:04:21;;;;;;;13.35;10.50;;;19.40;99.90;;;;;;5112282;27;20049;-79
2022/08/23 07:06:46;;;;;;;12.13;10.13;;;19.60;99.90;;;;;;5126103;27;20424;-79
2022/08/23 07:09:13;;;;;;;10.68;9.63;;;20.00;99.90;;;;;;5091036;27;20549;-78
2022/08/23 07:11:40;;;;;;;11.27;10.02;;;21.30;99.90;;;;;;5133264;27;20050;-75
2022/08/23 07:14:10;;;;;;;10.20;8.57;;;22.70;99.90;;;;;;5130491;27;20054;-78
2022/08/23 07:16:43;;;;;;;11.93;8.85;;;23.90;99.90;;;;;;5135288;27;20053;-79
2022/08/23 07:19:09;;;;;;;10.82;9.43;;;24.90;99.90;;;;;;5123130;27;20088;-77
2022/08/23 07:21:36;;;;;;;10.98;7.72;;;25.90;99.90;;;;;;5132704;27;20046;-78
2022/08/23 07:24:02;;;;;;;9.32;7.97;;;26.80;99.90;;;;;;5114880;27;20054;-79
2022/08/23 07:26:29;;;;;;;8.50;7.18;;;27.50;99.90;;;;;;5135189;27;20084;-77
2022/08/23 07:28:55;;;;;;;8.70;7.97;;;28.00;99.90;;;;;;5127580;27;20049;-80
2022/08/23 07:31:29;;;;;;;9.20;8.27;;;28.30;99.20;;;;;;5133238;27;20042;-80
2022/08/23 07:33:59;;;;;;;8.57;7.18;;;28.80;97.60;;;;;;5127416;27;20508;-80
2022/08/23 07:36:27;;;;;;;8.50;7.50;;;29.20;97.10;;;;;;5129957;27;20374;-76
2022/08/23 07:38:53;;;;;;;10.65;8.75;;;29.60;96.40;;;;;;5129408;27;20042;-78
2022/08/23 07:41:24;;;;;;;7.57;6.97;;;29.80;95.40;;;;;;5133620;27;20046;-79
2022/08/23 07:43:50;;;;;;;7.30;6.55;;;30.20;94.30;;;;;;5117406;27;20042;-80
2022/08/23 07:46:16;;;;;;;7.78;7.18;;;30.50;93.70;;;;;;5108489;27;20046;-80
2022/08/23 07:48:42;;;;;;;8.30;7.32;;;30.70;93.00;;;;;;5135880;27;20038;-77
2022/08/23 07:51:12;;;;;;;9.02;6.97;;;30.70;92.30;;;;;;5127593;27;20095;-81
2022/08/23 07:53:38;;;;;;;8.98;6.03;;;31.10;90.80;;;;;;5126260;27;20051;-81
2022/08/23 07:56:05;;;;;;;6.90;5.95;;;31.20;91.30;;;;;;5130143;27;20594;-74
2022/08/23 07:58:31;;;;;;;10.25;6.22;;;31.40;90.90;;;;;;5114770;27;20170;-78
2022/08/23 08:01:08;;;;;;;6.78;5.60;;;31.80;90.40;;;;;;5133407;27;20791;-78
2022/08/23 08:03:34;;;;;;;8.80;5.78;;;32.10;84.70;;;;;;5131026;27;20056;-75
2022/08/23 08:06:06;;;;;;;6.68;5.20;;;32.30;88.70;;;;;;5132107;27;20059;-79
2022/08/23 08:08:32;;;;;;;6.30;5.53;;;32.40;87.00;;;;;;5134636;27;20038;-78
2022/08/23 08:10:57;;;;;;;5.63;4.28;;;32.50;87.10;;;;;;5128839;27;20099;-76
2022/08/23 08:13:23;;;;;;;6.20;5.63;;;32.80;86.20;;;;;;5097513;27;20542;-79
2022/08/23 08:15:49;;;;;;;5.95;4.95;;;32.20;84.70;;;;;;5133883;27;20050;-76
2022/08/23 08:18:14;;;;;;;5.82;4.80;;;31.40;84.90;;;;;;5092354;27;20043;-79
2022/08/23 08:20:42;;;;;;;6.90;4.60;;;30.70;85.30;;;;;;5135105;27;20481;-79
2022/08/23 08:23:08;;;;;;;5.25;4.43;;;30.90;85.40;;;;;;5138204;27;21068;-79
2022/08/23 08:25:34;;;;;;;5.05;4.47;;;31.30;85.40;;;;;;5136823;27;20058;-76
2022/08/23 08:27:59;;;;;;;4.60;4.20;;;31.50;84.60;;;;;;5136945;27;20322;-77
2022/08/23 08:30:25;;;;;;;5.22;4.20;;;31.10;83.90;;;;;;5136170;27;20043;-77
2022/08/23 08:32:51;;;;;;;6.22;4.20;;;30.70;84.20;;;;;;5116081;27;20054;-80
2022/08/23 08:35:16;;;;;;;5.25;4.35;;;30.80;84.40;;;;;;5132667;27;20157;-81
2022/08/23 08:37:42;;;;;;;4.63;3.83;;;31.10;84.30;;;;;;5135841;27;20113;-79
2022/08/23 08:40:10;;;;;;;6.40;4.25;;;31.00;83.80;;;;;;5136839;27;20050;-79
2022/08/23 08:42:48;;;;;;;6.38;4.43;;;31.20;83.70;;;;;;5140000;27;20042;-76
2022/08/23 08:45:26;;;;;;;4.72;4.03;;;31.60;81.20;;;;;;5115616;27;20142;-79
2022/08/23 08:48:07;;;;;;;4.80;4.40;;;32.40;82.00;;;;;;5137253;27;20062;-77
2022/08/23 08:50:40;;;;;;;5.10;4.25;;;33.00;81.40;;;;;;5117183;27;20633;-81
2022/08/23 08:53:29;;;;;;;6.25;3.88;;;32.70;80.00;;;;;;5114494;27;20047;-78
2022/08/23 08:56:01;;;;;;;5.38;4.38;;;32.80;79.20;;;;;;5136889;27;20119;-78
2022/08/23 08:58:52;;;;;;;8.90;4.22;;;33.50;77.20;;;;;;5134498;27;20034;-80
2022/08/23 09:01:20;;;;;;;5.78;3.65;;;33.90;77.30;;;;;;5129534;27;20046;-80
2022/08/23 09:03:47;;;;;;;4.97;3.50;;;34.20;78.80;;;;;;5134401;27;20043;-78
2022/08/23 09:06:15;;;;;;;3.58;3.28;;;34.70;78.30;;;;;;5136356;27;20585;-80
2022/08/23 09:09:10;;;;;;;4.38;4.03;;;34.80;76.80;;;;;;5134030;27;20034;-75
2022/08/23 09:12:04;;;;;;;6.00;3.60;;;34.70;74.40;;;;;;5132740;27;20584;-79
2022/08/23 09:14:32;;;;;;;4.88;3.33;;;35.10;74.80;;;;;;5136075;27;20409;-76
2022/08/23 09:17:11;;;;;;;8.73;3.50;;;35.10;75.80;;;;;;5131455;27;20130;-80
2022/08/23 09:19:38;;;;;;;8.25;3.75;;;34.70;75.00;;;;;;5131479;27;20047;-79
2022/08/23 09:22:12;;;;;;;5.93;3.70;;;34.20;74.70;;;;;;5134298;27;20842;-79
2022/08/23 09:24:39;;;;;;;7.18;3.88;;;34.30;74.40;;;;;;5140349;27;20050;-82
2022/08/23 09:27:10;;;;;;;4.90;3.80;;;34.20;75.30;;;;;;5098280;27;20644;-80
2022/08/23 09:29:39;;;;;;;5.78;3.58;;;34.60;74.10;;;;;;5136806;27;20083;-80
2022/08/23 09:32:25;;;;;;;4.35;3.30;;;34.80;73.20;;;;;;5135217;27;20153;-78
2022/08/23 09:34:51;;;;;;;6.63;3.55;;;35.10;73.00;;;;;;5135611;27;20038;-79
2022/08/23 09:37:23;;;;;;;3.42;2.70;;;35.20;72.30;;;;;;5136898;27;20818;-78
2022/08/23 09:40:24;;;;;;;3.55;3.25;;;34.80;72.30;;;;;;5131951;27;20140;-75
2022/08/23 09:43:25;;;;;;;4.68;3.40;;;34.70;68.60;;;;;;5128227;27;20062;-81
2022/08/23 09:45:51;;;;;;;5.68;3.55;;;34.60;70.20;;;;;;5118287;27;20095;-81
2022/08/23 09:48:44;;;;;;;7.18;3.28;;;34.90;71.70;;;;;;5135204;27;20073;-83
2022/08/23 09:51:40;;;;;;;4.55;2.63;;;35.30;67.30;;;;;;4770046;27;10000694;-79
2022/08/23 09:54:17;;;;;;;6.97;3.00;;;35.70;65.70;;;;;;5114362;27;20039;-80
2022/08/23 09:56:54;;;;;;;2.67;2.47;;;36.00;66.90;;;;;;5135235;27;20035;-77
2022/08/23 09:59:24;;;;;;;5.57;3.08;;;35.70;66.70;;;;;;5132057;27;20297;-78
2022/08/23 10:01:52;;;;;;;4.57;2.80;;;35.30;67.10;;;;;;5134672;27;20115;-81
2022/08/23 10:04:35;;;;;;;6.90;2.58;;;34.90;66.90;;;;;;5114925;27;20099;-79
2022/08/23 10:07:27;;;;;;;3.95;2.50;;;34.70;67.10;;;;;;5134395;27;20168;-79
2022/08/23 10:09:53;;;;;;;8.23;3.28;;;34.50;66.00;;;;;;5128975;27;20615;-80
2022/08/23 10:12:19;;;;;;;16.60;3.33;;;34.50;66.90;;;;;;5127663;27;20050;-80
2022/08/23 10:14:45;;;;;;;6.30;2.88;;;34.50;67.20;;;;;;5124314;27;20043;-84
2022/08/23 10:17:22;;;;;;;3.75;2.42;;;34.90;67.20;;;;;;5130313;27;20101;-81
2022/08/23 10:20:08;;;;;;;3.88;2.75;;;34.90;65.70;;;;;;5134757;27;20078;-81
2022/08/23 10:22:57;;;;;;;8.40;2.33;;;34.80;64.90;;;;;;5122235;27;20038;-79
2022/08/23 10:25:41;;;;;;;4.43;3.20;;;35.10;64.30;;;;;;5084245;27;20143;-83
2022/08/23 10:31:19;;;;;;;5.88;3.00;;;35.00;64.40;;;;;;5127831;27;20081;-71
2022/08/23 10:33:56;;;;;;;4.07;2.70;;;34.70;65.90;;;;;;5121593;27;20050;-73
2022/08/23 10:36:22;;;;;;;4.55;3.70;;;34.40;66.00;;;;;;5133091;27;20053;-73
2022/08/23 10:39:00;;;;;;;5.25;3.25;;;34.40;65.50;;;;;;5126981;27;20046;-73
2022/08/23 10:41:34;;;;;;;4.53;3.58;;;34.40;64.90;;;;;;5133503;27;20046;-73
2022/08/23 10:44:19;;;;;;;4.57;3.03;;;34.10;65.60;;;;;;5126930;27;20078;-76
2022/08/23 10:47:06;;;;;;;4.10;3.70;;;34.10;65.90;;;;;;5123692;27;20145;-81
2022/08/23 10:49:37;;;;;;;3.28;2.90;;;34.10;65.40;;;;;;5130405;27;20780;-80
2022/08/23 10:52:05;;;;;;;4.43;2.95;;;34.30;65.40;;;;;;5128004;27;20926;-78
2022/08/23 10:54:58;;;;;;;4.63;3.13;;;33.90;64.10;;;;;;5132830;27;20118;-80
2022/08/23 10:57:31;;;;;;;3.65;3.10;;;33.70;64.10;;;;;;5133437;27;20051;-77
2022/08/23 10:59:58;;;;;;;6.45;2.95;;;33.20;64.40;;;;;;5136264;27;20047;-80
2022/08/23 11:02:42;;;;;;;2.97;2.78;;;32.70;64.20;;;;;;5109515;27;20486;-79
2022/08/23 11:05:29;;;;;;;5.85;3.20;;;32.20;64.80;;;;;;5134581;27;20042;-78
2022/08/23 11:08:29;;;;;;;7.30;2.88;;;31.90;65.90;;;;;;5106971;27;20050;-81
2022/08/23 11:10:55;;;;;;;5.18;3.13;;;31.80;65.90;;;;;;5119562;27;20122;-76
2022/08/23 11:13:25;;;;;;;4.00;3.28;;;31.60;65.60;;;;;;5126463;27;20290;-77
2022/08/23 11:16:19;;;;;;;3.75;2.88;;;31.60;65.20;;;;;;5113387;27;20074;-77
2022/08/23 11:18:47;;;;;;;4.03;3.40;;;31.50;65.50;;;;;;5127204;27;20043;-77
2022/08/23 11:21:16;;;;;;;3.70;3.30;;;31.50;65.30;;;;;;5117862;27;20155;-77
2022/08/23 11:24:13;;;;;;;3.80;2.60;;;31.40;65.50;;;;;;5119264;27;20095;-77
2022/08/23 11:26:40;;;;;;;5.03;3.22;;;31.40;65.30;;;;;;5131057;27;20051;-77
2022/08/23 11:29:05;;;;;;;6.88;3.03;;;31.30;65.20;;;;;;5126933;27;20085;-77
2022/08/23 11:31:37;;;;;;;3.40;3.10;;;31.30;65.20;;;;;;5114843;27;20465;-77
2022/08/23 11:34:39;;;;;;;4.75;3.60;;;31.10;65.60;;;;;;5125313;27;20153;-77
2022/08/23 11:37:17;;;;;;;5.22;3.60;;;31.10;66.50;;;;;;5115811;27;20054;-78
2022/08/23 11:39:58;;;;;;;5.93;3.20;;;30.90;66.30;;;;;;5108762;27;20743;-78
2022/08/23 11:42:30;;;;;;;3.95;2.90;;;30.80;66.50;;;;;;5123701;27;20061;-79
2022/08/23 11:44:56;;;;;;;4.47;3.08;;;30.70;66.10;;;;;;5127521;27;20046;-77
2022/08/23 11:47:37;;;;;;;7.63;3.10;;;30.60;66.20;;;;;;5108782;27;20380;-77
2022/08/23 11:50:22;;;;;;;3.63;2.97;;;30.70;66.40;;;;;;5119583;27;20051;-77
2022/08/23 11:53:17;;;;;;;15.18;3.95;;;30.70;66.30;;;;;;5131673;27;20046;-79
2022/08/23 11:55:46;;;;;;;4.22;2.95;;;30.80;65.30;;;;;;5132697;27;20053;-78
2022/08/23 11:58:26;;;;;;;4.60;3.30;;;30.80;66.00;;;;;;5131400;27;20457;-77
2022/08/23 12:01:06;;;;;;;3.85;3.30;;;30.80;65.30;;;;;;5126848;27;20058;-77
2022/08/23 12:03:51;;;;;;;4.30;3.80;;;30.80;65.00;;;;;;5123271;27;20042;-78
2022/08/23 12:06:39;;;;;;;5.03;3.50;;;31.00;65.80;;;;;;5118838;27;20057;-77
2022/08/23 12:09:25;;;;;;;4.05;2.97;;;31.00;65.70;;;;;;5106112;27;20054;-77
2022/08/23 12:11:54;;;;;;;4.30;3.15;;;31.00;66.10;;;;;;5108844;27;20896;-76
2022/08/23 12:14:38;;;;;;;5.45;3.08;;;31.00;66.20;;;;;;5127015;27;20042;-77
2022/08/23 12:17:24;;;;;;;6.70;2.75;;;31.10;66.60;;;;;;5113079;27;20405;-76
2022/08/23 12:19:56;;;;;;;4.32;2.72;;;31.00;66.10;;;;;;5128041;27;20054;-77
2022/08/23 12:22:43;;;;;;;8.03;3.10;;;30.90;66.50;;;;;;5111503;27;20050;-75
2022/08/23 12:25:09;;;;;;;4.45;3.17;;;31.00;67.00;;;;;;5086727;27;20062;-76
2022/08/23 12:27:47;;;;;;;3.33;2.80;;;31.00;66.60;;;;;;5122589;27;20039;-76
2022/08/23 12:30:19;;;;;;;7.93;3.05;;;31.10;66.50;;;;;;5128735;27;20034;-77
2022/08/23 12:33:01;;;;;;;3.70;2.83;;;31.30;66.80;;;;;;5125486;27;20499;-77
2022/08/23 12:35:42;;;;;;;3.20;2.90;;;31.50;66.60;;;;;;5127560;27;20175;-78
2022/08/23 12:38:19;;;;;;;4.82;2.88;;;31.70;65.80;;;;;;5122920;27;20042;-77
2022/08/23 12:40:49;;;;;;;3.72;2.95;;;31.70;66.00;;;;;;5125571;27;20085;-77
2022/08/23 12:43:25;;;;;;;3.15;2.83;;;31.70;65.80;;;;;;5124067;27;20074;-77
2022/08/23 12:45:53;;;;;;;3.75;2.50;;;31.60;66.20;;;;;;5125422;27;20124;-77
2022/08/23 12:48:23;;;;;;;3.70;2.70;;;31.50;65.70;;;;;;5117036;27;20143;-77
2022/08/23 12:51:09;;;;;;;6.15;2.95;;;31.50;65.00;;;;;;5112406;27;20059;-77
2022/08/23 12:53:39;;;;;;;6.18;2.90;;;31.50;64.80;;;;;;5110513;27;20051;-76
2022/08/23 12:56:14;;;;;;;4.40;2.75;;;31.60;64.30;;;;;;5134201;27;20046;-76
2022/08/23 12:58:47;;;;;;;4.25;2.88;;;31.60;64.40;;;;;;5102416;28;20130;-76
2022/08/23 13:01:35;;;;;;;5.32;3.00;;;31.40;64.40;;;;;;5132747;27;20062;-76
2022/08/23 13:04:12;;;;;;;5.95;2.65;;;31.40;63.00;;;;;;5131994;27;20499;-76
2022/08/23 13:06:49;;;;;;;3.85;2.67;;;31.40;63.80;;;;;;5132251;27;20054;-76
2022/08/23 13:09:38;;;;;;;5.25;3.05;;;31.70;63.70;;;;;;5131756;27;20045;-76
2022/08/23 13:12:06;;;;;;;3.25;2.40;;;31.50;63.20;;;;;;5119093;27;20042;-76
2022/08/23 13:14:34;;;;;;;5.85;2.85;;;31.70;63.50;;;;;;5134427;27;20053;-77